sensor_id;sensor_type;location;lat;lon;timestamp;pressure;altitude;pressure_sealevel;temperature;humidity
76594;BME280;65482;50.240;14.302;2023-02-26T00:02:08;98796.38;;;0.72;69.95
76594;BME280;65482;50.240;14.302;2023-02-26T00:04:35;98804.88;;;0.74;69.72
76594;BME280;65482;50.240;14.302;2023-02-26T00:07:16;98805.66;;;0.63;69.73
76594;BME280;65482;50.240;14.302;2023-02-26T00:09:41;98804.84;;;0.63;69.82
76594;BME280;65482;50.240;14.302;2023-02-26T00:12:10;98806.38;;;0.65;69.65
76594;BME280;65482;50.240;14.302;2023-02-26T00:14:37;98813.34;;;0.65;69.50
76594;BME280;65482;50.240;14.302;2023-02-26T00:19:56;98821.47;;;0.71;69.52
76594;BME280;65482;50.240;14.302;2023-02-26T00:22:22;98823.34;;;0.69;69.56
76594;BME280;65482;50.240;14.302;2023-02-26T00:24:48;98834.00;;;0.66;69.70
76594;BME280;65482;50.240;14.302;2023-02-26T00:27:13;98832.09;;;0.68;69.32
76594;BME280;65482;50.240;14.302;2023-02-26T00:29:39;98830.56;;;0.66;69.73
76594;BME280;65482;50.240;14.302;2023-02-26T00:32:05;98830.06;;;0.61;69.98
76594;BME280;65482;50.240;14.302;2023-02-26T00:34:31;98832.78;;;0.59;69.74
76594;BME280;65482;50.240;14.302;2023-02-26T00:37:25;98828.41;;;0.59;69.88
76594;BME280;65482;50.240;14.302;2023-02-26T00:42:33;98829.81;;;0.64;69.54
76594;BME280;65482;50.240;14.302;2023-02-26T00:44:59;98837.63;;;0.64;69.65
76594;BME280;65482;50.240;14.302;2023-02-26T00:55:25;98837.41;;;0.67;69.78
76594;BME280;65482;50.240;14.302;2023-02-26T00:57:50;98834.44;;;0.71;69.28
76594;BME280;65482;50.240;14.302;2023-02-26T01:00:16;98832.09;;;0.68;69.35
76594;BME280;65482;50.240;14.302;2023-02-26T01:02:43;98843.56;;;0.66;69.19
76594;BME280;65482;50.240;14.302;2023-02-26T01:05:09;98842.09;;;0.62;69.72
76594;BME280;65482;50.240;14.302;2023-02-26T01:07:53;98840.91;;;0.54;69.51
76594;BME280;65482;50.240;14.302;2023-02-26T01:10:23;98849.03;;;0.50;69.59
76594;BME280;65482;50.240;14.302;2023-02-26T01:12:49;98848.91;;;0.51;70.04
76594;BME280;65482;50.240;14.302;2023-02-26T01:15:15;98855.97;;;0.49;70.10
76594;BME280;65482;50.240;14.302;2023-02-26T01:17:54;98849.72;;;0.41;69.97
76594;BME280;65482;50.240;14.302;2023-02-26T01:20:26;98851.59;;;0.38;69.94
76594;BME280;65482;50.240;14.302;2023-02-26T01:23:00;98852.03;;;0.32;69.89
76594;BME280;65482;50.240;14.302;2023-02-26T01:25:28;98856.50;;;0.30;69.86
76594;BME280;65482;50.240;14.302;2023-02-26T01:27:54;98855.28;;;0.23;70.29
76594;BME280;65482;50.240;14.302;2023-02-26T01:30:24;98866.94;;;0.17;70.27
76594;BME280;65482;50.240;14.302;2023-02-26T01:33:01;98868.44;;;0.09;70.27
76594;BME280;65482;50.240;14.302;2023-02-26T01:35:53;98863.97;;;0.11;70.38
76594;BME280;65482;50.240;14.302;2023-02-26T01:38:32;98869.88;;;0.13;70.28
76594;BME280;65482;50.240;14.302;2023-02-26T01:46:24;98875.88;;;0.13;69.88
76594;BME280;65482;50.240;14.302;2023-02-26T01:48:52;98871.13;;;0.07;69.55
76594;BME280;65482;50.240;14.302;2023-02-26T01:51:42;98879.84;;;0.06;69.47
76594;BME280;65482;50.240;14.302;2023-02-26T01:54:04;98887.41;;;0.09;69.09
76594;BME280;65482;50.240;14.302;2023-02-26T01:56:30;98886.97;;;0.15;68.75
76594;BME280;65482;50.240;14.302;2023-02-26T01:58:55;98888.53;;;0.18;68.62
76594;BME280;65482;50.240;14.302;2023-02-26T02:01:21;98891.16;;;0.29;68.21
76594;BME280;65482;50.240;14.302;2023-02-26T02:03:46;98888.66;;;0.28;67.91
76594;BME280;65482;50.240;14.302;2023-02-26T02:06:17;98891.66;;;0.34;67.59
76594;BME280;65482;50.240;14.302;2023-02-26T02:08:44;98900.16;;;0.36;67.04
76594;BME280;65482;50.240;14.302;2023-02-26T02:11:10;98901.09;;;0.35;67.37
76594;BME280;65482;50.240;14.302;2023-02-26T02:13:47;98903.13;;;0.43;67.35
76594;BME280;65482;50.240;14.302;2023-02-26T02:19:23;98901.59;;;0.41;67.24
76594;BME280;65482;50.240;14.302;2023-02-26T02:22:32;98905.63;;;0.45;67.21
76594;BME280;65482;50.240;14.302;2023-02-26T02:25:34;98910.59;;;0.48;67.21
76594;BME280;65482;50.240;14.302;2023-02-26T02:33:56;98915.13;;;0.57;66.42
76594;BME280;65482;50.240;14.302;2023-02-26T02:36:34;98922.53;;;0.50;65.98
76594;BME280;65482;50.240;14.302;2023-02-26T02:39:06;98925.44;;;0.46;65.89
76594;BME280;65482;50.240;14.302;2023-02-26T02:41:37;98926.28;;;0.46;65.90
76594;BME280;65482;50.240;14.302;2023-02-26T02:44:09;98933.66;;;0.39;65.76
76594;BME280;65482;50.240;14.302;2023-02-26T02:46:38;98931.84;;;0.29;66.14
76594;BME280;65482;50.240;14.302;2023-02-26T02:49:29;98936.81;;;0.32;66.03
76594;BME280;65482;50.240;14.302;2023-02-26T02:52:00;98938.47;;;0.33;65.82
76594;BME280;65482;50.240;14.302;2023-02-26T02:54:34;98943.31;;;0.37;65.64
76594;BME280;65482;50.240;14.302;2023-02-26T02:57:10;98949.50;;;0.48;65.34
76594;BME280;65482;50.240;14.302;2023-02-26T02:59:42;98956.16;;;0.52;65.10
76594;BME280;65482;50.240;14.302;2023-02-26T03:02:13;98955.09;;;0.54;64.95
76594;BME280;65482;50.240;14.302;2023-02-26T03:04:40;98961.81;;;0.57;64.55
76594;BME280;65482;50.240;14.302;2023-02-26T03:07:06;98966.75;;;0.49;64.76
76594;BME280;65482;50.240;14.302;2023-02-26T03:09:33;98966.22;;;0.44;65.43
76594;BME280;65482;50.240;14.302;2023-02-26T03:11:58;98968.72;;;0.45;65.28
76594;BME280;65482;50.240;14.302;2023-02-26T03:14:25;98964.94;;;0.38;65.52
76594;BME280;65482;50.240;14.302;2023-02-26T03:19:43;98976.13;;;0.38;65.34
76594;BME280;65482;50.240;14.302;2023-02-26T03:22:25;98978.00;;;0.36;64.91
76594;BME280;65482;50.240;14.302;2023-02-26T03:25:08;98983.56;;;0.43;65.16
76594;BME280;65482;50.240;14.302;2023-02-26T03:33:22;98996.97;;;0.50;64.96
76594;BME280;65482;50.240;14.302;2023-02-26T03:38:24;99012.63;;;0.48;64.69
76594;BME280;65482;50.240;14.302;2023-02-26T03:41:06;99013.53;;;0.60;64.59
76594;BME280;65482;50.240;14.302;2023-02-26T03:46:13;99025.56;;;0.61;64.36
76594;BME280;65482;50.240;14.302;2023-02-26T03:48:41;99028.16;;;0.61;64.36
76594;BME280;65482;50.240;14.302;2023-02-26T03:51:10;99028.16;;;0.61;64.63
76594;BME280;65482;50.240;14.302;2023-02-26T03:53:48;99031.56;;;0.62;64.26
76594;BME280;65482;50.240;14.302;2023-02-26T03:56:27;99038.63;;;0.59;64.62
76594;BME280;65482;50.240;14.302;2023-02-26T03:58:53;99037.63;;;0.62;64.47
76594;BME280;65482;50.240;14.302;2023-02-26T04:01:23;99039.50;;;0.60;65.00
76594;BME280;65482;50.240;14.302;2023-02-26T04:03:56;99038.88;;;0.56;65.06
76594;BME280;65482;50.240;14.302;2023-02-26T04:06:23;99043.09;;;0.57;64.95
76594;BME280;65482;50.240;14.302;2023-02-26T04:08:50;99041.22;;;0.59;65.28
76594;BME280;65482;50.240;14.302;2023-02-26T04:11:19;99046.22;;;0.63;64.70
76594;BME280;65482;50.240;14.302;2023-02-26T04:13:45;99046.13;;;0.64;65.13
76594;BME280;65482;50.240;14.302;2023-02-26T04:16:11;99051.84;;;0.56;65.16
76594;BME280;65482;50.240;14.302;2023-02-26T04:18:37;99052.28;;;0.50;65.07
76594;BME280;65482;50.240;14.302;2023-02-26T04:21:03;99054.78;;;0.52;64.41
76594;BME280;65482;50.240;14.302;2023-02-26T04:23:29;99066.84;;;0.40;64.69
76594;BME280;65482;50.240;14.302;2023-02-26T04:25:54;99063.69;;;0.48;64.79
76594;BME280;65482;50.240;14.302;2023-02-26T04:28:20;99061.72;;;0.51;64.62
76594;BME280;65482;50.240;14.302;2023-02-26T04:30:45;99072.00;;;0.53;64.85
76594;BME280;65482;50.240;14.302;2023-02-26T04:33:12;99074.69;;;0.51;65.03
76594;BME280;65482;50.240;14.302;2023-02-26T04:35:38;99075.31;;;0.55;64.82
76594;BME280;65482;50.240;14.302;2023-02-26T04:38:03;99072.81;;;0.53;65.20
76594;BME280;65482;50.240;14.302;2023-02-26T04:40:30;99078.72;;;0.55;65.00
76594;BME280;65482;50.240;14.302;2023-02-26T04:42:55;99082.03;;;0.57;64.82
76594;BME280;65482;50.240;14.302;2023-02-26T04:45:21;99081.94;;;0.59;64.82
76594;BME280;65482;50.240;14.302;2023-02-26T04:47:46;99089.00;;;0.57;64.34
76594;BME280;65482;50.240;14.302;2023-02-26T04:50:12;99094.19;;;0.57;64.66
76594;BME280;65482;50.240;14.302;2023-02-26T04:52:38;99098.34;;;0.59;64.60
76594;BME280;65482;50.240;14.302;2023-02-26T04:55:05;99098.13;;;0.63;64.61
76594;BME280;65482;50.240;14.302;2023-02-26T04:57:31;99098.34;;;0.59;64.41
76594;BME280;65482;50.240;14.302;2023-02-26T04:59:57;99091.50;;;0.58;63.57
76594;BME280;65482;50.240;14.302;2023-02-26T05:02:23;99100.00;;;0.61;63.84
76594;BME280;65482;50.240;14.302;2023-02-26T05:04:48;99102.28;;;0.65;63.67
76594;BME280;65482;50.240;14.302;2023-02-26T05:07:14;99106.66;;;0.65;63.92
76594;BME280;65482;50.240;14.302;2023-02-26T05:09:40;99113.41;;;0.54;64.17
76594;BME280;65482;50.240;14.302;2023-02-26T05:12:05;99116.94;;;0.53;64.23
76594;BME280;65482;50.240;14.302;2023-02-26T05:14:31;99122.03;;;0.55;63.75
76594;BME280;65482;50.240;14.302;2023-02-26T05:16:56;99122.41;;;0.62;63.62
76594;BME280;65482;50.240;14.302;2023-02-26T05:19:22;99122.84;;;0.55;64.39
76594;BME280;65482;50.240;14.302;2023-02-26T05:21:48;99127.63;;;0.49;63.66
76594;BME280;65482;50.240;14.302;2023-02-26T05:24:14;99124.94;;;0.50;64.14
76594;BME280;65482;50.240;14.302;2023-02-26T05:26:40;99131.78;;;0.51;64.51
76594;BME280;65482;50.240;14.302;2023-02-26T05:29:06;99130.13;;;0.50;64.34
76594;BME280;65482;50.240;14.302;2023-02-26T05:31:31;99127.84;;;0.58;64.32
76594;BME280;65482;50.240;14.302;2023-02-26T05:33:57;99127.22;;;0.68;63.23
76594;BME280;65482;50.240;14.302;2023-02-26T05:36:22;99141.22;;;0.65;63.59
76594;BME280;65482;50.240;14.302;2023-02-26T05:38:48;99140.19;;;0.68;63.07
76594;BME280;65482;50.240;14.302;2023-02-26T05:41:13;99154.91;;;0.67;63.34
76594;BME280;65482;50.240;14.302;2023-02-26T05:43:39;99151.78;;;0.75;63.36
76594;BME280;65482;50.240;14.302;2023-02-26T05:46:06;99156.06;;;0.76;63.15
76594;BME280;65482;50.240;14.302;2023-02-26T05:48:32;99156.97;;;0.75;62.95
76594;BME280;65482;50.240;14.302;2023-02-26T05:50:57;99159.97;;;0.82;62.86
76594;BME280;65482;50.240;14.302;2023-02-26T05:53:23;99167.66;;;0.83;63.40
76594;BME280;65482;50.240;14.302;2023-02-26T05:55:48;99175.25;;;0.86;62.90
76594;BME280;65482;50.240;14.302;2023-02-26T05:58:15;99185.63;;;0.86;63.07
76594;BME280;65482;50.240;14.302;2023-02-26T06:00:40;99189.56;;;0.92;63.01
76594;BME280;65482;50.240;14.302;2023-02-26T06:03:06;99192.03;;;0.93;62.66
76594;BME280;65482;50.240;14.302;2023-02-26T06:05:32;99200.47;;;0.97;62.79
76594;BME280;65482;50.240;14.302;2023-02-26T06:07:58;99202.13;;;0.98;62.66
76594;BME280;65482;50.240;14.302;2023-02-26T06:10:24;99206.59;;;0.96;62.76
76594;BME280;65482;50.240;14.302;2023-02-26T06:12:50;99210.03;;;0.96;62.74
76594;BME280;65482;50.240;14.302;2023-02-26T06:15:15;99211.06;;;0.94;62.71
76594;BME280;65482;50.240;14.302;2023-02-26T06:17:41;99217.28;;;0.91;63.47
76594;BME280;65482;50.240;14.302;2023-02-26T06:20:08;99230.00;;;0.70;62.81
76594;BME280;65482;50.240;14.302;2023-02-26T06:22:34;99233.22;;;0.61;63.17
76594;BME280;65482;50.240;14.302;2023-02-26T06:25:00;99235.19;;;0.57;63.13
76594;BME280;65482;50.240;14.302;2023-02-26T06:27:25;99239.75;;;0.67;62.55
76594;BME280;65482;50.240;14.302;2023-02-26T06:29:51;99247.13;;;0.60;62.18
76594;BME280;65482;50.240;14.302;2023-02-26T06:32:17;99252.75;;;0.67;62.52
76594;BME280;65482;50.240;14.302;2023-02-26T06:34:42;99257.81;;;0.81;62.06
76594;BME280;65482;50.240;14.302;2023-02-26T06:37:08;99263.13;;;0.92;61.69
76594;BME280;65482;50.240;14.302;2023-02-26T06:39:33;99266.84;;;1.01;61.45
76594;BME280;65482;50.240;14.302;2023-02-26T06:41:59;99269.94;;;1.19;61.48
76594;BME280;65482;50.240;14.302;2023-02-26T06:44:24;99275.84;;;1.21;59.75
76594;BME280;65482;50.240;14.302;2023-02-26T06:46:50;99282.47;;;1.25;60.09
76594;BME280;65482;50.240;14.302;2023-02-26T06:49:15;99281.75;;;1.23;60.04
76594;BME280;65482;50.240;14.302;2023-02-26T06:51:41;99287.38;;;1.30;60.50
76594;BME280;65482;50.240;14.302;2023-02-26T06:54:06;99289.25;;;1.28;59.44
76594;BME280;65482;50.240;14.302;2023-02-26T06:56:32;99299.13;;;1.23;60.09
76594;BME280;65482;50.240;14.302;2023-02-26T06:58:58;99302.69;;;1.22;59.79
76594;BME280;65482;50.240;14.302;2023-02-26T07:01:23;99299.03;;;1.24;59.77
76594;BME280;65482;50.240;14.302;2023-02-26T07:03:49;99307.44;;;1.28;59.89
76594;BME280;65482;50.240;14.302;2023-02-26T07:06:15;99314.63;;;1.24;59.10
76594;BME280;65482;50.240;14.302;2023-02-26T07:08:41;99312.75;;;1.26;59.29
76594;BME280;65482;50.240;14.302;2023-02-26T07:11:07;99320.44;;;1.28;58.37
76594;BME280;65482;50.240;14.302;2023-02-26T07:13:36;99329.03;;;1.41;58.41
76594;BME280;65482;50.240;14.302;2023-02-26T07:16:03;99331.94;;;1.49;57.92
76594;BME280;65482;50.240;14.302;2023-02-26T07:18:32;99332.47;;;1.42;58.14
76594;BME280;65482;50.240;14.302;2023-02-26T07:20:58;99342.75;;;1.43;58.65
76594;BME280;65482;50.240;14.302;2023-02-26T07:23:24;99347.56;;;1.49;58.56
76594;BME280;65482;50.240;14.302;2023-02-26T07:25:50;99349.91;;;1.52;58.27
76594;BME280;65482;50.240;14.302;2023-02-26T07:28:15;99347.34;;;1.39;57.65
76594;BME280;65482;50.240;14.302;2023-02-26T07:30:41;99353.03;;;1.45;58.66
76594;BME280;65482;50.240;14.302;2023-02-26T07:33:07;99356.22;;;1.61;58.18
76594;BME280;65482;50.240;14.302;2023-02-26T07:35:34;99358.00;;;1.61;56.95
76594;BME280;65482;50.240;14.302;2023-02-26T07:37:59;99356.22;;;1.61;57.11
76594;BME280;65482;50.240;14.302;2023-02-26T07:40:26;99356.22;;;1.74;57.56
76594;BME280;65482;50.240;14.302;2023-02-26T07:42:51;99356.78;;;1.90;57.24
76594;BME280;65482;50.240;14.302;2023-02-26T07:45:17;99360.72;;;2.79;54.97
76594;BME280;65482;50.240;14.302;2023-02-26T07:47:47;99365.09;;;3.48;52.71
76594;BME280;65482;50.240;14.302;2023-02-26T07:50:14;99367.94;;;4.11;50.30
76594;BME280;65482;50.240;14.302;2023-02-26T07:52:39;99377.97;;;4.92;49.57
76594;BME280;65482;50.240;14.302;2023-02-26T07:55:07;99374.50;;;5.74;47.22
76594;BME280;65482;50.240;14.302;2023-02-26T07:57:33;99366.53;;;6.55;42.82
76594;BME280;65482;50.240;14.302;2023-02-26T07:59:59;99382.94;;;5.77;44.43
76594;BME280;65482;50.240;14.302;2023-02-26T08:02:24;99386.81;;;5.01;45.73
76594;BME280;65482;50.240;14.302;2023-02-26T08:04:51;99389.31;;;4.49;46.70
76594;BME280;65482;50.240;14.302;2023-02-26T08:07:17;99397.19;;;4.37;48.40
76594;BME280;65482;50.240;14.302;2023-02-26T08:09:43;99399.53;;;4.08;47.28
76594;BME280;65482;50.240;14.302;2023-02-26T08:12:08;99401.09;;;3.66;48.34
76594;BME280;65482;50.240;14.302;2023-02-26T08:14:34;99410.25;;;3.71;49.12
76594;BME280;65482;50.240;14.302;2023-02-26T08:17:01;99410.84;;;3.75;49.36
76594;BME280;65482;50.240;14.302;2023-02-26T08:19:26;99419.72;;;3.84;49.48
76594;BME280;65482;50.240;14.302;2023-02-26T08:21:52;99418.66;;;3.86;49.03
76594;BME280;65482;50.240;14.302;2023-02-26T08:24:20;99418.19;;;3.92;49.50
76594;BME280;65482;50.240;14.302;2023-02-26T08:26:46;99423.03;;;3.86;48.29
76594;BME280;65482;50.240;14.302;2023-02-26T08:29:12;99422.47;;;3.82;49.51
76594;BME280;65482;50.240;14.302;2023-02-26T08:31:37;99427.19;;;3.99;49.18
76594;BME280;65482;50.240;14.302;2023-02-26T08:34:03;99432.28;;;4.01;49.77
76594;BME280;65482;50.240;14.302;2023-02-26T08:36:30;99434.88;;;4.01;49.96
76594;BME280;65482;50.240;14.302;2023-02-26T08:38:56;99444.38;;;4.13;48.52
76594;BME280;65482;50.240;14.302;2023-02-26T08:41:21;99444.75;;;3.86;49.06
76594;BME280;65482;50.240;14.302;2023-02-26T08:43:47;99450.78;;;3.75;50.41
76594;BME280;65482;50.240;14.302;2023-02-26T08:46:13;99444.41;;;3.68;49.90
76594;BME280;65482;50.240;14.302;2023-02-26T08:48:38;99460.06;;;3.68;50.93
76594;BME280;65482;50.240;14.302;2023-02-26T08:51:04;99460.53;;;3.85;50.53
76594;BME280;65482;50.240;14.302;2023-02-26T08:53:30;99460.19;;;3.78;51.09
76594;BME280;65482;50.240;14.302;2023-02-26T08:55:55;99472.13;;;3.92;51.03
76594;BME280;65482;50.240;14.302;2023-02-26T08:58:21;99474.88;;;3.90;52.01
76594;BME280;65482;50.240;14.302;2023-02-26T09:00:46;99476.06;;;3.97;52.77
76594;BME280;65482;50.240;14.302;2023-02-26T09:03:12;99485.53;;;4.21;52.90
76594;BME280;65482;50.240;14.302;2023-02-26T09:05:38;99487.06;;;4.46;52.27
76594;BME280;65482;50.240;14.302;2023-02-26T09:08:06;99495.72;;;4.47;52.46
76594;BME280;65482;50.240;14.302;2023-02-26T09:10:32;99489.75;;;4.56;53.05
76594;BME280;65482;50.240;14.302;2023-02-26T09:12:58;99490.06;;;4.74;52.38
76594;BME280;65482;50.240;14.302;2023-02-26T09:15:23;99493.59;;;4.84;52.90
76594;BME280;65482;50.240;14.302;2023-02-26T09:17:49;99504.25;;;4.92;52.30
76594;BME280;65482;50.240;14.302;2023-02-26T09:20:16;99504.63;;;4.88;52.14
76594;BME280;65482;50.240;14.302;2023-02-26T09:22:42;99499.94;;;4.70;52.52
76594;BME280;65482;50.240;14.302;2023-02-26T09:25:08;99507.84;;;4.36;52.50
76594;BME280;65482;50.240;14.302;2023-02-26T09:27:34;99507.59;;;4.06;51.34
76594;BME280;65482;50.240;14.302;2023-02-26T09:30:01;99503.44;;;3.69;52.14
76594;BME280;65482;50.240;14.302;2023-02-26T09:32:27;99508.53;;;3.59;52.87
76594;BME280;65482;50.240;14.302;2023-02-26T09:34:53;99511.69;;;3.41;52.79
76594;BME280;65482;50.240;14.302;2023-02-26T09:37:18;99507.97;;;3.32;53.73
76594;BME280;65482;50.240;14.302;2023-02-26T09:39:44;99525.72;;;3.15;54.03
76594;BME280;65482;50.240;14.302;2023-02-26T09:42:39;99525.44;;;3.07;53.61
76594;BME280;65482;50.240;14.302;2023-02-26T09:45:23;99524.28;;;3.11;54.02
76594;BME280;65482;50.240;14.302;2023-02-26T09:47:51;99536.38;;;3.12;53.48
76594;BME280;65482;50.240;14.302;2023-02-26T09:50:30;99529.81;;;3.31;54.25
76594;BME280;65482;50.240;14.302;2023-02-26T09:53:20;99537.34;;;3.69;53.95
76594;BME280;65482;50.240;14.302;2023-02-26T09:55:51;99534.88;;;3.79;53.63
76594;BME280;65482;50.240;14.302;2023-02-26T09:58:28;99543.19;;;3.73;53.31
76594;BME280;65482;50.240;14.302;2023-02-26T10:06:29;99547.66;;;3.24;55.36
76594;BME280;65482;50.240;14.302;2023-02-26T10:12:04;99559.75;;;3.25;54.73
76594;BME280;65482;50.240;14.302;2023-02-26T10:20:14;99563.84;;;3.41;53.46
76594;BME280;65482;50.240;14.302;2023-02-26T10:25:16;99578.94;;;3.48;55.11
76594;BME280;65482;50.240;14.302;2023-02-26T10:27:52;99583.53;;;3.45;54.68
76594;BME280;65482;50.240;14.302;2023-02-26T10:30:31;99584.66;;;3.29;55.39
76594;BME280;65482;50.240;14.302;2023-02-26T10:33:06;99587.47;;;3.26;55.29
76594;BME280;65482;50.240;14.302;2023-02-26T10:35:41;99593.34;;;3.41;55.65
76594;BME280;65482;50.240;14.302;2023-02-26T10:38:15;99589.47;;;3.47;56.20
76594;BME280;65482;50.240;14.302;2023-02-26T10:40:50;99593.56;;;3.62;55.95
76594;BME280;65482;50.240;14.302;2023-02-26T10:43:25;99592.00;;;3.59;56.37
76594;BME280;65482;50.240;14.302;2023-02-26T10:51:22;99603.25;;;3.25;56.62
76594;BME280;65482;50.240;14.302;2023-02-26T10:53:53;99609.66;;;3.08;56.93
76594;BME280;65482;50.240;14.302;2023-02-26T10:56:29;99607.06;;;3.08;57.19
76594;BME280;65482;50.240;14.302;2023-02-26T10:58:55;99613.72;;;3.12;57.12
76594;BME280;65482;50.240;14.302;2023-02-26T11:01:24;99611.78;;;3.03;57.17
76594;BME280;65482;50.240;14.302;2023-02-26T11:03:55;99609.38;;;2.99;56.60
76594;BME280;65482;50.240;14.302;2023-02-26T11:06:27;99609.78;;;2.69;57.14
76594;BME280;65482;50.240;14.302;2023-02-26T11:08:55;99617.09;;;2.64;57.83
76594;BME280;65482;50.240;14.302;2023-02-26T11:11:55;99617.09;;;2.64;58.38
76594;BME280;65482;50.240;14.302;2023-02-26T11:14:25;99616.88;;;2.54;57.28
76594;BME280;65482;50.240;14.302;2023-02-26T11:16:57;99614.09;;;2.57;57.30
76594;BME280;65482;50.240;14.302;2023-02-26T11:19:30;99614.28;;;2.54;57.11
76594;BME280;65482;50.240;14.302;2023-02-26T11:21:58;99622.09;;;2.67;57.55
76594;BME280;65482;50.240;14.302;2023-02-26T11:24:36;99615.00;;;2.69;57.25
76594;BME280;65482;50.240;14.302;2023-02-26T11:27:15;99623.75;;;2.68;56.60
76594;BME280;65482;50.240;14.302;2023-02-26T11:29:46;99617.38;;;2.85;55.46
76594;BME280;65482;50.240;14.302;2023-02-26T11:32:20;99620.97;;;2.95;55.77
76594;BME280;65482;50.240;14.302;2023-02-26T11:34:48;99622.31;;;3.01;56.63
76594;BME280;65482;50.240;14.302;2023-02-26T11:37:20;99621.78;;;3.09;55.28
76594;BME280;65482;50.240;14.302;2023-02-26T11:39:51;99620.78;;;2.98;55.64
76594;BME280;65482;50.240;14.302;2023-02-26T11:42:19;99626.19;;;2.95;56.97
76594;BME280;65482;50.240;14.302;2023-02-26T11:44:46;99623.91;;;2.91;56.00
76594;BME280;65482;50.240;14.302;2023-02-26T11:47:15;99632.31;;;2.94;56.00
76594;BME280;65482;50.240;14.302;2023-02-26T11:49:45;99644.16;;;3.11;55.46
76594;BME280;65482;50.240;14.302;2023-02-26T11:52:26;99640.38;;;3.28;54.53
76594;BME280;65482;50.240;14.302;2023-02-26T11:54:58;99641.09;;;3.30;53.67
76594;BME280;65482;50.240;14.302;2023-02-26T11:57:27;99634.19;;;3.05;53.46
76594;BME280;65482;50.240;14.302;2023-02-26T11:59:55;99634.94;;;2.94;55.15
76594;BME280;65482;50.240;14.302;2023-02-26T12:02:24;99648.72;;;2.96;55.09
76594;BME280;65482;50.240;14.302;2023-02-26T12:04:55;99642.25;;;2.89;54.65
76594;BME280;65482;50.240;14.302;2023-02-26T12:07:21;99641.44;;;2.89;54.05
76594;BME280;65482;50.240;14.302;2023-02-26T12:09:48;99633.28;;;2.93;54.58
76594;BME280;65482;50.240;14.302;2023-02-26T12:21:02;99640.22;;;3.06;54.18
76594;BME280;65482;50.240;14.302;2023-02-26T12:26:39;99647.13;;;2.94;54.12
76594;BME280;65482;50.240;14.302;2023-02-26T12:29:37;99665.47;;;2.92;54.01
76594;BME280;65482;50.240;14.302;2023-02-26T12:32:27;99661.56;;;2.87;53.22
76594;BME280;65482;50.240;14.302;2023-02-26T12:35:14;99664.34;;;2.96;53.36
76594;BME280;65482;50.240;14.302;2023-02-26T12:37:54;99665.84;;;3.12;54.35
76594;BME280;65482;50.240;14.302;2023-02-26T12:40:49;99667.72;;;3.10;52.99
76594;BME280;65482;50.240;14.302;2023-02-26T12:43:48;99666.81;;;3.11;54.08
76594;BME280;65482;50.240;14.302;2023-02-26T12:46:33;99660.19;;;3.18;54.10
76594;BME280;65482;50.240;14.302;2023-02-26T12:49:26;99659.53;;;3.27;54.11
76594;BME280;65482;50.240;14.302;2023-02-26T12:52:21;99662.59;;;3.21;53.64
76594;BME280;65482;50.240;14.302;2023-02-26T13:03:38;99663.91;;;3.03;53.93
76594;BME280;65482;50.240;14.302;2023-02-26T13:09:27;99682.16;;;2.90;53.01
76594;BME280;65482;50.240;14.302;2023-02-26T13:17:44;99687.72;;;2.85;52.32
76594;BME280;65482;50.240;14.302;2023-02-26T13:20:20;99688.13;;;2.66;52.65
76594;BME280;65482;50.240;14.302;2023-02-26T13:22:53;99686.88;;;2.72;52.88
76594;BME280;65482;50.240;14.302;2023-02-26T13:25:34;99695.00;;;2.80;53.23
76594;BME280;65482;50.240;14.302;2023-02-26T13:28:17;99686.44;;;2.91;53.03
76594;BME280;65482;50.240;14.302;2023-02-26T13:30:52;99687.38;;;2.90;53.26
76594;BME280;65482;50.240;14.302;2023-02-26T13:33:22;99692.25;;;2.94;53.74
76594;BME280;65482;50.240;14.302;2023-02-26T13:35:51;99694.28;;;2.91;53.01
76594;BME280;65482;50.240;14.302;2023-02-26T13:46:42;99692.41;;;2.67;51.92
76594;BME280;65482;50.240;14.302;2023-02-26T13:49:16;99706.50;;;2.65;51.91
76594;BME280;65482;50.240;14.302;2023-02-26T13:51:46;99703.34;;;2.59;51.65
76594;BME280;65482;50.240;14.302;2023-02-26T13:56:52;99700.88;;;2.45;51.65
76594;BME280;65482;50.240;14.302;2023-02-26T13:59:47;99703.03;;;2.26;52.40
76594;BME280;65482;50.240;14.302;2023-02-26T14:02:34;99707.94;;;2.17;53.17
76594;BME280;65482;50.240;14.302;2023-02-26T14:05:00;99709.28;;;2.23;53.52
76594;BME280;65482;50.240;14.302;2023-02-26T14:08:20;99707.00;;;2.57;52.97
76594;BME280;65482;50.240;14.302;2023-02-26T14:10:56;99708.03;;;2.67;52.96
76594;BME280;65482;50.240;14.302;2023-02-26T14:13:31;99710.00;;;2.76;53.01
76594;BME280;65482;50.240;14.302;2023-02-26T14:16:10;99711.78;;;2.76;53.09
76594;BME280;65482;50.240;14.302;2023-02-26T14:21:31;99711.88;;;2.74;53.46
76594;BME280;65482;50.240;14.302;2023-02-26T14:24:22;99716.47;;;2.84;53.29
76594;BME280;65482;50.240;14.302;2023-02-26T14:26:49;99719.91;;;2.84;53.57
76594;BME280;65482;50.240;14.302;2023-02-26T14:29:25;99721.16;;;2.91;53.66
76594;BME280;65482;50.240;14.302;2023-02-26T14:32:11;99726.38;;;2.66;52.83
76594;BME280;65482;50.240;14.302;2023-02-26T14:34:46;99726.91;;;2.71;53.57
76594;BME280;65482;50.240;14.302;2023-02-26T14:37:14;99729.59;;;2.56;53.18
76594;BME280;65482;50.240;14.302;2023-02-26T14:39:46;99730.44;;;2.31;53.12
76594;BME280;65482;50.240;14.302;2023-02-26T14:42:22;99726.56;;;2.11;53.16
76594;BME280;65482;50.240;14.302;2023-02-26T14:45:07;99739.28;;;1.89;54.02
76594;BME280;65482;50.240;14.302;2023-02-26T14:47:36;99729.00;;;1.87;54.18
76594;BME280;65482;50.240;14.302;2023-02-26T14:50:04;99744.06;;;1.82;53.95
76594;BME280;65482;50.240;14.302;2023-02-26T14:55:22;99738.31;;;1.77;54.86
76594;BME280;65482;50.240;14.302;2023-02-26T15:00:35;99741.94;;;1.74;54.47
76594;BME280;65482;50.240;14.302;2023-02-26T15:05:53;99746.09;;;1.77;54.61
76594;BME280;65482;50.240;14.302;2023-02-26T15:11:04;99742.44;;;1.94;54.06
76594;BME280;65482;50.240;14.302;2023-02-26T15:13:49;99750.97;;;1.96;53.64
76594;BME280;65482;50.240;14.302;2023-02-26T15:16:44;99750.78;;;2.12;54.12